createdAt,value
2018-12-09T00:00:38.483Z,6.4
2018-12-09T00:01:40.604Z,6.4
2018-12-09T00:02:42.737Z,6.4
2018-12-09T00:03:45.052Z,6.4
2018-12-09T00:04:47.479Z,6.4
2018-12-09T00:05:49.589Z,6.4
2018-12-09T00:06:52.019Z,6.4
2018-12-09T00:07:54.127Z,6.4
2018-12-09T00:08:56.253Z,6.5
2018-12-09T00:09:58.372Z,6.5
2018-12-09T00:11:00.498Z,6.5
2018-12-09T00:12:03.014Z,6.5
2018-12-09T00:13:05.147Z,6.5
2018-12-09T00:14:07.266Z,6.5
2018-12-09T00:15:09.390Z,6.5
2018-12-09T00:16:11.508Z,6.6
2018-12-09T00:17:13.676Z,6.5
2018-12-09T00:18:15.790Z,6.6
2018-12-09T00:19:17.921Z,6.6
2018-12-09T00:20:20.045Z,6.6
2018-12-09T00:21:22.177Z,6.6
2018-12-09T00:22:24.321Z,6.6
2018-12-09T00:23:26.426Z,6.6
2018-12-09T00:24:28.562Z,6.6
2018-12-09T00:25:30.674Z,6.7
2018-12-09T00:26:32.782Z,6.7
2018-12-09T00:27:34.909Z,6.7
2018-12-09T00:28:37.011Z,6.7
2018-12-09T00:29:39.142Z,6.7
2018-12-09T00:30:41.280Z,6.7
2018-12-09T00:31:43.437Z,6.7
2018-12-09T00:32:45.835Z,6.8
2018-12-09T00:33:47.959Z,6.8
2018-12-09T00:34:50.074Z,6.8
2018-12-09T00:35:52.173Z,6.8
2018-12-09T00:36:54.305Z,6.8
2018-12-09T00:37:56.423Z,6.8
2018-12-09T00:38:58.549Z,6.8
2018-12-09T00:40:01.044Z,6.8
2018-12-09T00:41:03.192Z,6.9
2018-12-09T00:42:05.297Z,6.9
2018-12-09T00:43:07.423Z,6.9
2018-12-09T00:44:09.824Z,6.9
2018-12-09T00:45:11.940Z,6.9
2018-12-09T00:46:14.081Z,6.9
2018-12-09T00:47:16.569Z,6.9
2018-12-09T00:48:18.951Z,6.9
2018-12-09T00:49:21.071Z,6.9
2018-12-09T00:50:23.205Z,6.9
2018-12-09T00:51:25.326Z,7
2018-12-09T00:52:27.935Z,7
2018-12-09T00:53:30.349Z,7
2018-12-09T00:54:32.555Z,7
2018-12-09T00:55:34.689Z,7
2018-12-09T00:56:36.799Z,7
2018-12-09T00:57:39.316Z,7
2018-12-09T00:58:41.732Z,7.1
2018-12-09T00:59:43.843Z,7.1
2018-12-09T01:00:45.973Z,7.1
2018-12-09T01:01:48.078Z,7.1
2018-12-09T01:02:50.583Z,7.1
2018-12-09T01:03:52.789Z,7.1
2018-12-09T01:04:55.201Z,7.1
2018-12-09T01:05:57.311Z,7.1
2018-12-09T01:06:59.438Z,7.1
2018-12-09T01:08:01.556Z,7.1
2018-12-09T01:09:03.666Z,7.1
2018-12-09T01:10:05.794Z,7.1
2018-12-09T01:11:07.905Z,7.1
2018-12-09T01:12:10.019Z,7.1
2018-12-09T01:13:12.522Z,7.1
2018-12-09T01:14:14.935Z,7.1
2018-12-09T01:15:17.052Z,7.1
2018-12-09T01:16:19.175Z,7.1
2018-12-09T01:17:21.301Z,7.2
2018-12-09T01:18:23.396Z,7.2
2018-12-09T01:19:25.631Z,7.2
2018-12-09T01:20:27.745Z,7.2
2018-12-09T01:21:30.138Z,7.2
2018-12-09T01:22:32.571Z,7.2
2018-12-09T01:23:34.698Z,7.3
2018-12-09T01:24:36.830Z,7.3
2018-12-09T01:25:39.532Z,7.3
2018-12-09T01:26:41.691Z,7.3
2018-12-09T01:27:43.822Z,7.3
2018-12-09T01:28:46.064Z,7.3
2018-12-09T01:29:48.214Z,7.3
2018-12-09T01:30:50.647Z,7.3
2018-12-09T01:31:52.795Z,7.3
2018-12-09T01:32:55.637Z,7.3
2018-12-09T01:33:58.173Z,7.3
2018-12-09T01:35:00.590Z,7.3
2018-12-09T01:36:02.851Z,7.3
2018-12-09T01:37:05.279Z,7.3
2018-12-09T01:38:07.427Z,7.3
2018-12-09T01:39:09.835Z,7.3
2018-12-09T01:40:12.369Z,7.3
2018-12-09T01:41:14.801Z,7.3
2018-12-09T01:42:17.047Z,7.3
2018-12-09T01:43:19.600Z,7.3
2018-12-09T01:44:21.761Z,7.3
2018-12-09T01:45:23.908Z,7.4
2018-12-09T01:46:26.049Z,7.4
2018-12-09T01:47:28.215Z,7.4
2018-12-09T01:48:31.407Z,7.4
2018-12-09T01:49:33.873Z,7.4
2018-12-09T01:50:36.529Z,7.4
2018-12-09T01:51:39.049Z,7.4
2018-12-09T01:52:41.193Z,7.4
2018-12-09T01:53:43.337Z,7.4
2018-12-09T01:54:45.448Z,7.4
2018-12-09T01:55:47.599Z,7.5
2018-12-09T01:56:50.107Z,7.5
2018-12-09T01:57:52.522Z,7.4
2018-12-09T01:58:54.698Z,7.5
2018-12-09T01:59:56.986Z,7.5
2018-12-09T02:00:59.181Z,7.5
2018-12-09T02:02:01.348Z,7.5
2018-12-09T02:03:03.895Z,7.5
2018-12-09T02:04:07.047Z,7.5
2018-12-09T02:05:10.215Z,7.5
2018-12-09T02:06:12.976Z,7.5
2018-12-09T02:07:15.393Z,7.5
2018-12-09T02:08:17.556Z,7.5
2018-12-09T02:09:19.984Z,7.5
2018-12-09T02:10:22.167Z,7.5
2018-12-09T02:11:24.298Z,7.6
2018-12-09T02:12:26.739Z,7.6
2018-12-09T02:13:28.911Z,7.6
2018-12-09T02:14:31.452Z,7.6
2018-12-09T02:15:33.591Z,7.6
2018-12-09T02:16:36.040Z,7.6
2018-12-09T02:17:38.186Z,7.6
2018-12-09T02:18:40.848Z,7.7
2018-12-09T02:19:42.996Z,7.6
2018-12-09T02:20:46.068Z,7.6
2018-12-09T02:21:49.045Z,7.6
2018-12-09T02:22:51.265Z,7.7
2018-12-09T02:23:53.416Z,7.7
2018-12-09T02:24:55.853Z,7.7
2018-12-09T02:25:58.010Z,7.7
2018-12-09T02:27:00.155Z,7.7
2018-12-09T02:28:02.301Z,7.7
2018-12-09T02:29:04.506Z,7.7
2018-12-09T02:30:06.682Z,7.7
2018-12-09T02:31:09.136Z,7.7
2018-12-09T02:32:11.719Z,7.7
2018-12-09T02:33:14.158Z,7.7
2018-12-09T02:34:16.579Z,7.7
2018-12-09T02:35:19.015Z,7.7
2018-12-09T02:36:22.199Z,7.7
2018-12-09T02:37:25.594Z,7.7
2018-12-09T02:38:28.736Z,7.7
2018-12-09T02:39:31.549Z,7.7
2018-12-09T02:40:33.963Z,7.7
2018-12-09T02:41:36.116Z,7.7
2018-12-09T02:42:38.282Z,7.7
2018-12-09T02:43:41.372Z,7.7
2018-12-09T02:44:43.492Z,7.7
2018-12-09T02:45:45.949Z,7.7
2018-12-09T02:46:48.089Z,7.7
2018-12-09T02:47:50.318Z,7.7
2018-12-09T02:48:52.471Z,7.6
2018-12-09T02:49:54.600Z,7.6
2018-12-09T02:50:57.319Z,7.6
2018-12-09T02:51:59.460Z,7.6
2018-12-09T02:53:02.502Z,7.6
2018-12-09T02:54:05.379Z,7.6
2018-12-09T02:55:07.863Z,7.6
2018-12-09T02:56:10.135Z,7.6
2018-12-09T02:57:12.571Z,7.6
2018-12-09T02:58:14.743Z,7.6
2018-12-09T02:59:17.458Z,7.6
2018-12-09T03:00:19.616Z,7.6
2018-12-09T03:01:22.060Z,7.6
2018-12-09T03:02:24.481Z,7.5
2018-12-09T03:03:26.615Z,7.5
2018-12-09T03:04:29.444Z,7.5
2018-12-09T03:05:31.744Z,7.5
2018-12-09T03:06:34.185Z,7.5
2018-12-09T03:07:36.342Z,7.5
2018-12-09T03:08:39.304Z,7.5
2018-12-09T03:09:42.182Z,7.5
2018-12-09T03:10:44.340Z,7.4
2018-12-09T03:11:46.473Z,7.4
2018-12-09T03:12:48.629Z,7.4
2018-12-09T03:13:50.801Z,7.4
2018-12-09T03:14:52.939Z,7.4
2018-12-09T03:15:55.502Z,7.4
2018-12-09T03:16:58.055Z,7.4
2018-12-09T03:18:00.491Z,7.3
2018-12-09T03:19:02.967Z,7.2
2018-12-09T03:20:05.114Z,7.2
2018-12-09T03:21:07.278Z,7.1
2018-12-09T03:22:09.405Z,7
2018-12-09T03:23:12.535Z,7
2018-12-09T03:24:15.913Z,6.9
2018-12-09T03:25:18.942Z,6.9
2018-12-09T03:26:21.074Z,6.8
2018-12-09T03:27:23.234Z,6.7
2018-12-09T03:28:25.397Z,6.7
2018-12-09T03:29:27.968Z,6.7
2018-12-09T03:30:31.193Z,6.7
2018-12-09T03:31:33.686Z,6.7
2018-12-09T03:32:36.515Z,6.6
2018-12-09T03:33:39.366Z,6.6
2018-12-09T03:34:41.815Z,6.6
2018-12-09T03:35:43.952Z,6.5
2018-12-09T03:36:46.757Z,6.5
2018-12-09T03:37:48.899Z,6.5
2018-12-09T03:38:51.027Z,6.5
2018-12-09T03:39:54.356Z,6.5
2018-12-09T03:40:56.867Z,6.5
2018-12-09T03:41:59.029Z,6.5
2018-12-09T03:43:01.160Z,6.4
2018-12-09T03:44:03.355Z,6.4
2018-12-09T03:45:05.538Z,6.4
2018-12-09T03:46:07.951Z,6.4
2018-12-09T03:47:10.132Z,6.4
2018-12-09T03:48:12.273Z,6.4
2018-12-09T03:49:14.428Z,6.4
2018-12-09T03:50:16.861Z,6.4
2018-12-09T03:51:19.134Z,6.4
2018-12-09T03:52:21.395Z,6.4
2018-12-09T03:53:23.582Z,6.4
2018-12-09T03:54:26.542Z,6.4
2018-12-09T03:55:29.100Z,6.4
2018-12-09T03:56:31.266Z,6.4
2018-12-09T03:57:33.462Z,6.4
2018-12-09T03:58:35.615Z,6.4
2018-12-09T03:59:37.764Z,6.4
2018-12-09T04:00:40.605Z,6.4
2018-12-09T04:01:42.746Z,6.4
2018-12-09T04:02:44.970Z,6.4
2018-12-09T04:03:47.117Z,6.4
2018-12-09T04:04:49.521Z,6.4
2018-12-09T04:05:51.700Z,6.4
2018-12-09T04:06:53.833Z,6.4
2018-12-09T04:07:55.995Z,6.4
2018-12-09T04:08:59.154Z,6.4
2018-12-09T04:10:02.004Z,6.4
2018-12-09T04:11:04.172Z,6.4
2018-12-09T04:12:06.599Z,6.4
2018-12-09T04:13:08.757Z,6.4
2018-12-09T04:14:10.903Z,6.5
2018-12-09T04:15:13.066Z,6.5
2018-12-09T04:16:15.575Z,6.4
2018-12-09T04:17:18.007Z,6.5
2018-12-09T04:18:20.151Z,6.5
2018-12-09T04:19:22.310Z,6.4
2018-12-09T04:20:24.505Z,6.4
2018-12-09T04:21:26.620Z,6.5
2018-12-09T04:22:28.774Z,6.5
2018-12-09T04:23:31.868Z,6.5
2018-12-09T04:24:34.526Z,6.5
2018-12-09T04:25:36.641Z,6.4
2018-12-09T04:26:38.872Z,6.4
2018-12-09T04:27:41.050Z,6.4
2018-12-09T04:28:43.489Z,6.5
2018-12-09T04:29:45.953Z,6.4
2018-12-09T04:30:48.102Z,6.5
2018-12-09T04:31:50.521Z,6.4
2018-12-09T04:32:53.043Z,6.4
2018-12-09T04:33:55.201Z,6.4
2018-12-09T04:34:57.339Z,6.4
2018-12-09T04:35:59.502Z,6.4
2018-12-09T04:37:02.337Z,6.4
2018-12-09T04:38:05.158Z,6.4
2018-12-09T04:39:08.024Z,6.4
2018-12-09T04:40:11.017Z,6.4
2018-12-09T04:41:13.150Z,6.4
2018-12-09T04:42:15.705Z,6.4
2018-12-09T04:43:17.859Z,6.4
2018-12-09T04:44:20.003Z,6.4
2018-12-09T04:45:22.426Z,6.3
2018-12-09T04:46:24.564Z,6.4
2018-12-09T04:47:27.181Z,6.4
2018-12-09T04:48:29.701Z,6.3
2018-12-09T04:49:31.850Z,6.3
2018-12-09T04:50:34.413Z,6.3
2018-12-09T04:51:36.572Z,6.3
2018-12-09T04:52:38.715Z,6.3
2018-12-09T04:53:41.951Z,6.3
2018-12-09T04:54:44.756Z,6.3
2018-12-09T04:55:47.298Z,6.3
2018-12-09T04:56:49.441Z,6.3
2018-12-09T04:57:51.607Z,6.3
2018-12-09T04:58:53.734Z,6.3
2018-12-09T04:59:56.162Z,6.3
2018-12-09T05:00:58.327Z,6.2
2018-12-09T05:02:00.463Z,6.3
2018-12-09T05:03:03.015Z,6.2
2018-12-09T05:04:05.247Z,6.2
2018-12-09T05:05:07.678Z,6.2
2018-12-09T05:06:09.820Z,6.2
2018-12-09T05:07:12.258Z,6.2
2018-12-09T05:08:15.535Z,6.2
2018-12-09T05:09:19.205Z,6.2
2018-12-09T05:10:22.299Z,6.2
2018-12-09T05:11:24.426Z,6.2
2018-12-09T05:12:26.868Z,6.1
2018-12-09T05:13:29.013Z,6.1
2018-12-09T05:14:31.146Z,6.1
2018-12-09T05:15:33.591Z,6.1
2018-12-09T05:16:35.763Z,6.1
2018-12-09T05:17:37.898Z,6.1
2018-12-09T05:18:40.062Z,6.1
2018-12-09T05:19:42.201Z,6.1
2018-12-09T05:20:44.327Z,6
2018-12-09T05:21:46.475Z,6
2018-12-09T05:22:49.368Z,6
2018-12-09T05:23:51.892Z,5.9
2018-12-09T05:24:54.986Z,5.9
2018-12-09T05:25:57.410Z,5.9
2018-12-09T05:26:59.534Z,5.9
2018-12-09T05:28:01.680Z,5.9
2018-12-09T05:29:03.815Z,5.9
2018-12-09T05:30:05.964Z,5.9
2018-12-09T05:31:08.110Z,5.8
2018-12-09T05:32:10.544Z,5.8
2018-12-09T05:33:12.668Z,5.8
2018-12-09T05:34:14.803Z,5.8
2018-12-09T05:35:17.031Z,5.8
2018-12-09T05:36:19.150Z,5.7
2018-12-09T05:37:22.218Z,5.7
2018-12-09T05:38:24.797Z,5.7
2018-12-09T05:39:26.955Z,5.7
2018-12-09T05:40:29.079Z,5.7
2018-12-09T05:41:31.240Z,5.7
2018-12-09T05:42:33.393Z,5.6
2018-12-09T05:43:35.540Z,5.6
2018-12-09T05:44:37.708Z,5.6
2018-12-09T05:45:39.838Z,5.6
2018-12-09T05:46:42.036Z,5.5
2018-12-09T05:47:44.202Z,5.5
2018-12-09T05:48:46.341Z,5.5
2018-12-09T05:49:48.863Z,5.5
2018-12-09T05:50:51.629Z,5.5
2018-12-09T05:51:54.759Z,5.4
2018-12-09T05:52:57.586Z,5.4
2018-12-09T05:53:59.739Z,5.4
2018-12-09T05:55:02.275Z,5.4
2018-12-09T05:56:04.412Z,5.3
2018-12-09T05:57:06.574Z,5.3
2018-12-09T05:58:08.728Z,5.3
2018-12-09T05:59:10.877Z,5.3
2018-12-09T06:00:13.126Z,5.3
2018-12-09T06:01:15.577Z,5.3
2018-12-09T06:02:17.719Z,5.2
2018-12-09T06:03:19.972Z,5.2
2018-12-09T06:04:22.102Z,5.2
2018-12-09T06:05:25.296Z,5.2
2018-12-09T06:06:27.926Z,5.2
2018-12-09T06:07:30.594Z,5.2
2018-12-09T06:08:32.743Z,5.2
2018-12-09T06:09:34.876Z,5.2
2018-12-09T06:10:37.046Z,5.2
2018-12-09T06:11:39.213Z,5.1
2018-12-09T06:12:41.647Z,5.1
2018-12-09T06:13:43.772Z,5.1
2018-12-09T06:14:46.222Z,5.1
2018-12-09T06:15:48.436Z,5.1
2018-12-09T06:16:50.858Z,5.1
2018-12-09T06:17:53.416Z,5.1
2018-12-09T06:18:55.546Z,5.1
2018-12-09T06:19:58.582Z,5.1
2018-12-09T06:21:01.268Z,5.1
2018-12-09T06:22:03.421Z,5.1
2018-12-09T06:23:05.562Z,5.1
2018-12-09T06:24:07.710Z,5.1
2018-12-09T06:25:10.174Z,5.1
2018-12-09T06:26:12.314Z,5.1
2018-12-09T06:27:14.450Z,5.1
2018-12-09T06:28:16.597Z,5.1
2018-12-09T06:29:18.744Z,5.1
2018-12-09T06:30:20.909Z,5.1
2018-12-09T06:31:23.050Z,5.1
2018-12-09T06:32:25.186Z,5.1
2018-12-09T06:33:27.353Z,5.1
2018-12-09T06:34:30.133Z,5.1
2018-12-09T06:35:32.901Z,5.1
2018-12-09T06:36:35.050Z,5.1
2018-12-09T06:37:37.213Z,5.2
2018-12-09T06:38:39.366Z,5.2
2018-12-09T06:39:41.496Z,5.2
2018-12-09T06:40:43.634Z,5.2
2018-12-09T06:41:45.786Z,5.2
2018-12-09T06:42:47.900Z,5.2
2018-12-09T06:43:50.350Z,5.2
2018-12-09T06:44:52.493Z,5.2
2018-12-09T06:45:55.313Z,5.2
2018-12-09T06:46:57.442Z,5.2
2018-12-09T06:48:00.308Z,5.2
2018-12-09T06:49:03.549Z,5.2
2018-12-09T06:50:06.427Z,5.2
2018-12-09T06:51:08.597Z,5.2
2018-12-09T06:52:10.728Z,5.3
2018-12-09T06:53:13.153Z,5.3
2018-12-09T06:54:15.282Z,5.2
2018-12-09T06:55:17.422Z,5.2
2018-12-09T06:56:19.554Z,5.2
2018-12-09T06:57:21.719Z,5.3
2018-12-09T06:58:23.852Z,5.2
2018-12-09T06:59:25.993Z,5.2
2018-12-09T07:00:28.155Z,5.2
2018-12-09T07:01:32.554Z,5.2
2018-12-09T07:02:35.063Z,5.2
2018-12-09T07:03:38.231Z,5.2
2018-12-09T07:04:40.368Z,5.2
2018-12-09T07:05:42.537Z,5.2
2018-12-09T07:06:44.688Z,5.2
2018-12-09T07:07:46.805Z,5.3
2018-12-09T07:08:48.958Z,5.3
2018-12-09T07:09:51.103Z,5.3
2018-12-09T07:10:53.259Z,5.3
2018-12-09T07:11:55.394Z,5.3
2018-12-09T07:12:57.538Z,5.3
2018-12-09T07:13:59.735Z,5.4
2018-12-09T07:15:02.962Z,5.3
2018-12-09T07:16:05.456Z,5.3
2018-12-09T07:17:08.699Z,5.3
2018-12-09T07:18:11.131Z,5.3
2018-12-09T07:19:13.801Z,5.3
2018-12-09T07:20:15.925Z,5.5
2018-12-09T07:21:18.071Z,5.4
2018-12-09T07:22:20.186Z,5.5
2018-12-09T07:23:22.591Z,5.5
2018-12-09T07:24:24.753Z,5.5
2018-12-09T07:25:26.893Z,5.5
2018-12-09T07:26:29.042Z,5.5
2018-12-09T07:27:31.201Z,5.5
2018-12-09T07:28:33.359Z,5.5
2018-12-09T07:29:36.287Z,5.6
2018-12-09T07:30:39.138Z,5.6
2018-12-09T07:31:41.293Z,5.6
2018-12-09T07:32:43.531Z,5.6
2018-12-09T07:33:45.975Z,5.7
2018-12-09T07:34:48.236Z,5.6
2018-12-09T07:35:50.375Z,5.6
2018-12-09T07:36:52.542Z,5.6
2018-12-09T07:37:54.671Z,5.6
2018-12-09T07:38:56.810Z,5.6
2018-12-09T07:39:58.951Z,5.6
2018-12-09T07:41:01.469Z,5.7
2018-12-09T07:42:03.606Z,5.7
2018-12-09T07:43:06.578Z,5.7
2018-12-09T07:44:09.089Z,5.7
2018-12-09T07:45:11.210Z,5.7
2018-12-09T07:46:15.451Z,5.7
2018-12-09T07:47:17.986Z,5.7
2018-12-09T07:48:20.119Z,5.8
2018-12-09T07:49:22.285Z,5.8
2018-12-09T07:50:24.815Z,5.8
2018-12-09T07:51:27.608Z,5.8
2018-12-09T07:52:29.717Z,5.9
2018-12-09T07:53:32.125Z,5.8
2018-12-09T07:54:34.513Z,5.9
2018-12-09T07:55:36.632Z,5.8
2018-12-09T07:56:38.748Z,5.8
2018-12-09T07:57:40.850Z,5.9
2018-12-09T07:58:42.971Z,5.9
2018-12-09T07:59:45.097Z,5.9
2018-12-09T08:00:47.201Z,5.9
2018-12-09T08:01:49.312Z,5.9
2018-12-09T08:02:51.443Z,5.9
2018-12-09T08:03:53.846Z,5.9
2018-12-09T08:04:56.360Z,5.9
2018-12-09T08:05:58.478Z,6
2018-12-09T08:07:00.593Z,6
2018-12-09T08:08:02.996Z,5.9
2018-12-09T08:09:05.124Z,6
2018-12-09T08:10:07.219Z,6
2018-12-09T08:11:09.340Z,6
2018-12-09T08:12:11.460Z,6
2018-12-09T08:13:13.569Z,6
2018-12-09T08:14:15.696Z,6.1
2018-12-09T08:15:17.810Z,6.1
2018-12-09T08:16:20.238Z,6.1
2018-12-09T08:17:22.390Z,6.2
2018-12-09T08:18:24.525Z,6.2
2018-12-09T08:19:26.640Z,6.2
2018-12-09T08:20:29.043Z,6.2
2018-12-09T08:21:31.175Z,6.2
2018-12-09T08:22:33.288Z,6.2
2018-12-09T08:23:35.419Z,6.2
2018-12-09T08:24:37.542Z,6.2
2018-12-09T08:25:39.667Z,6.2
2018-12-09T08:26:42.055Z,6.2
2018-12-09T08:27:44.176Z,6.2
2018-12-09T08:28:46.390Z,6.2
2018-12-09T08:29:49.093Z,6.2
2018-12-09T08:30:51.237Z,6.2
2018-12-09T08:31:53.347Z,6.3
2018-12-09T08:32:55.756Z,6.3
2018-12-09T08:33:57.972Z,6.3
2018-12-09T08:35:00.372Z,6.3
2018-12-09T08:36:02.500Z,6.3
2018-12-09T08:37:04.608Z,6.3
2018-12-09T08:38:06.744Z,6.3
2018-12-09T08:39:08.865Z,6.3
2018-12-09T08:40:10.964Z,6.3
2018-12-09T08:41:13.470Z,6.3
2018-12-09T08:42:15.597Z,6.4
2018-12-09T08:43:18.080Z,6.4
2018-12-09T08:44:20.210Z,6.4
2018-12-09T08:45:22.328Z,6.3
2018-12-09T08:46:24.737Z,6.3
2018-12-09T08:47:26.866Z,6.3
2018-12-09T08:48:29.283Z,6.3
2018-12-09T08:49:31.409Z,6.3
2018-12-09T08:50:33.516Z,6.4
2018-12-09T08:51:35.650Z,6.4
2018-12-09T08:52:37.769Z,6.4
2018-12-09T08:53:39.882Z,6.4
2018-12-09T08:54:42.034Z,6.4
2018-12-09T08:55:44.249Z,6.4
2018-12-09T08:56:46.658Z,6.4
2018-12-09T08:57:48.774Z,6.4
2018-12-09T08:58:50.900Z,6.4
2018-12-09T08:59:53.017Z,6.5
2018-12-09T09:00:55.439Z,6.4
2018-12-09T09:01:57.839Z,6.4
2018-12-09T09:02:59.949Z,6.4
2018-12-09T09:04:02.386Z,6.5
2018-12-09T09:05:05.052Z,6.5
2018-12-09T09:06:07.170Z,6.5
2018-12-09T09:07:09.319Z,6.5
2018-12-09T09:08:11.445Z,6.5
2018-12-09T09:09:13.572Z,6.5
2018-12-09T09:10:15.995Z,6.5
2018-12-09T09:11:18.380Z,6.5
2018-12-09T09:12:20.917Z,6.6
2018-12-09T09:13:23.041Z,6.6
2018-12-09T09:14:25.158Z,6.6
2018-12-09T09:15:27.283Z,6.6
2018-12-09T09:16:29.419Z,6.6
2018-12-09T09:17:31.534Z,6.6
2018-12-09T09:18:33.656Z,6.6
2018-12-09T09:19:35.795Z,6.6
2018-12-09T09:20:38.203Z,6.6
2018-12-09T09:21:40.605Z,6.6
2018-12-09T09:22:42.730Z,6.6
2018-12-09T09:23:44.873Z,6.7
2018-12-09T09:24:46.990Z,6.7
2018-12-09T09:25:49.116Z,6.7
2018-12-09T09:26:51.237Z,6.7
2018-12-09T09:27:53.648Z,6.7
2018-12-09T09:28:55.779Z,6.7
2018-12-09T09:29:58.277Z,6.7
2018-12-09T09:31:00.391Z,6.7
2018-12-09T09:32:02.518Z,6.8
2018-12-09T09:33:05.040Z,6.8
2018-12-09T09:34:07.837Z,6.8
2018-12-09T09:35:09.962Z,6.8
2018-12-09T09:36:12.084Z,6.8
2018-12-09T09:37:14.179Z,6.9
2018-12-09T09:38:16.310Z,6.9
2018-12-09T09:39:18.427Z,6.9
2018-12-09T09:40:20.542Z,6.9
2018-12-09T09:41:22.663Z,6.9
2018-12-09T09:42:24.783Z,6.9
2018-12-09T09:43:26.908Z,6.9
2018-12-09T09:44:29.039Z,7
2018-12-09T09:45:31.444Z,7
2018-12-09T09:46:33.558Z,7
2018-12-09T09:47:35.674Z,7
2018-12-09T09:48:37.785Z,7
2018-12-09T09:49:39.911Z,7
2018-12-09T09:50:42.307Z,7
2018-12-09T09:51:44.804Z,7
2018-12-09T09:52:47.055Z,7
2018-12-09T09:53:49.159Z,7.1
2018-12-09T09:54:51.568Z,7.1
2018-12-09T09:55:53.688Z,7.1
2018-12-09T09:56:55.819Z,7.1
2018-12-09T09:57:57.918Z,7.1
2018-12-09T09:59:00.048Z,7.1
2018-12-09T10:00:02.870Z,7.1
2018-12-09T10:01:04.987Z,7.1
2018-12-09T10:02:07.158Z,7.1
2018-12-09T10:03:09.271Z,7.1
2018-12-09T10:04:11.394Z,7.2
2018-12-09T10:05:13.608Z,7.2
2018-12-09T10:06:15.746Z,7.2
2018-12-09T10:07:17.849Z,7.2
2018-12-09T10:08:19.976Z,7.3
2018-12-09T10:09:22.110Z,7.3
2018-12-09T10:10:24.210Z,7.3
2018-12-09T10:11:26.611Z,7.3
2018-12-09T10:12:28.742Z,7.3
2018-12-09T10:13:31.250Z,7.2
2018-12-09T10:14:33.366Z,7.3
2018-12-09T10:15:35.497Z,7.3
2018-12-09T10:16:37.605Z,7.3
2018-12-09T10:17:39.735Z,7.3
2018-12-09T10:18:41.849Z,7.3
2018-12-09T10:19:44.345Z,7.3
2018-12-09T10:20:46.461Z,7.4
2018-12-09T10:21:48.608Z,7.4
2018-12-09T10:22:50.705Z,7.5
2018-12-09T10:23:52.835Z,7.6
2018-12-09T10:24:54.956Z,7.6
2018-12-09T10:25:57.063Z,7.7
2018-12-09T10:26:59.191Z,7.7
2018-12-09T10:28:01.580Z,7.7
2018-12-09T10:29:04.120Z,7.7
2018-12-09T10:30:06.232Z,7.7
2018-12-09T10:31:08.366Z,7.7
2018-12-09T10:32:10.852Z,7.7
2018-12-09T10:33:12.975Z,7.7
2018-12-09T10:34:15.144Z,7.7
2018-12-09T10:35:17.339Z,7.7
2018-12-09T10:36:19.473Z,7.7
2018-12-09T10:37:21.596Z,7.7
2018-12-09T10:38:23.722Z,7.7
2018-12-09T10:39:26.207Z,7.7
2018-12-09T10:40:28.330Z,7.8
2018-12-09T10:41:30.448Z,7.7
2018-12-09T10:42:32.564Z,7.8
2018-12-09T10:43:35.039Z,7.7
2018-12-09T10:44:37.156Z,7.7
2018-12-09T10:45:39.268Z,7.7
2018-12-09T10:46:41.403Z,7.7
2018-12-09T10:47:43.811Z,7.7
2018-12-09T10:48:46.021Z,7.7
2018-12-09T10:49:48.151Z,7.7
2018-12-09T10:50:50.274Z,7.7
2018-12-09T10:51:52.427Z,7.7
2018-12-09T10:52:54.625Z,7.7
2018-12-09T10:53:56.752Z,7.9
2018-12-09T10:54:59.158Z,7.8
2018-12-09T10:56:01.303Z,7.9
2018-12-09T10:57:03.480Z,7.9
2018-12-09T10:58:05.589Z,7.9
2018-12-09T10:59:07.771Z,8
2018-12-09T11:00:09.870Z,8
2018-12-09T11:01:12.000Z,7.9
2018-12-09T11:02:14.148Z,7.9
2018-12-09T11:03:16.315Z,7.9
2018-12-09T11:04:18.459Z,7.9
2018-12-09T11:05:20.846Z,7.9
2018-12-09T11:06:23.101Z,7.9
2018-12-09T11:07:25.228Z,7.8
2018-12-09T11:08:27.336Z,7.8
2018-12-09T11:09:29.478Z,7.8
2018-12-09T11:10:31.596Z,7.8
2018-12-09T11:11:33.728Z,7.8
2018-12-09T11:12:35.829Z,7.8
2018-12-09T11:13:37.971Z,7.7
2018-12-09T11:14:40.094Z,7.7
2018-12-09T11:15:42.202Z,7.8
2018-12-09T11:16:44.624Z,7.7
2018-12-09T11:17:46.732Z,7.8
2018-12-09T11:18:48.844Z,7.7
2018-12-09T11:19:50.970Z,7.7
2018-12-09T11:20:53.384Z,7.7
2018-12-09T11:21:55.490Z,7.7
2018-12-09T11:22:57.614Z,7.7
2018-12-09T11:23:59.719Z,7.7
2018-12-09T11:25:01.845Z,7.6
2018-12-09T11:26:04.364Z,7.7
2018-12-09T11:27:06.490Z,7.7
2018-12-09T11:28:08.618Z,7.6
2018-12-09T11:29:10.755Z,7.6
2018-12-09T11:30:13.259Z,7.6
2018-12-09T11:31:15.370Z,7.6
2018-12-09T11:32:17.496Z,7.6
2018-12-09T11:33:19.600Z,7.6
2018-12-09T11:34:22.049Z,7.5
2018-12-09T11:35:24.839Z,7.5
2018-12-09T11:36:26.964Z,7.6
2018-12-09T11:37:29.073Z,7.6
2018-12-09T11:38:31.207Z,7.5
2018-12-09T11:39:33.331Z,7.5
2018-12-09T11:40:35.456Z,7.5
2018-12-09T11:41:37.575Z,7.5
2018-12-09T11:42:39.706Z,7.5
2018-12-09T11:43:41.890Z,7.5
2018-12-09T11:44:44.027Z,7.5
2018-12-09T11:45:46.194Z,7.5
2018-12-09T11:46:48.334Z,7.5
2018-12-09T11:47:50.451Z,7.5
2018-12-09T11:48:52.566Z,7.5
2018-12-09T11:49:55.011Z,7.5
2018-12-09T11:50:57.398Z,7.4
2018-12-09T11:51:59.523Z,7.4
2018-12-09T11:53:01.645Z,7.4
2018-12-09T11:54:03.846Z,7.5
2018-12-09T11:55:06.351Z,7.5
2018-12-09T11:56:08.475Z,7.5
2018-12-09T11:57:10.584Z,7.4
2018-12-09T11:58:12.700Z,7.4
2018-12-09T11:59:15.126Z,7.3
2018-12-09T12:00:17.358Z,7.4
2018-12-09T12:01:19.466Z,7.4
2018-12-09T12:02:21.603Z,7.4
2018-12-09T12:03:23.718Z,7.4
2018-12-09T12:04:25.831Z,7.4
2018-12-09T12:05:27.968Z,7.4
2018-12-09T12:06:30.069Z,7.4
2018-12-09T12:07:32.191Z,7.4
2018-12-09T12:08:34.704Z,7.4
2018-12-09T12:09:36.841Z,7.4
2018-12-09T12:10:38.947Z,7.4
2018-12-09T12:11:41.081Z,7.3
2018-12-09T12:12:43.208Z,7.3
2018-12-09T12:13:45.368Z,7.4
2018-12-09T12:14:47.793Z,7.5
2018-12-09T12:15:49.902Z,7.7
2018-12-09T12:16:52.037Z,7.8
2018-12-09T12:17:54.144Z,7.8
2018-12-09T12:18:56.276Z,7.8
2018-12-09T12:19:58.387Z,7.7
2018-12-09T12:21:00.506Z,7.7
2018-12-09T12:22:02.631Z,7.8
2018-12-09T12:23:04.804Z,7.8
2018-12-09T12:24:06.908Z,7.8
2018-12-09T12:25:09.026Z,7.8
2018-12-09T12:26:11.167Z,7.7
2018-12-09T12:27:13.289Z,7.8
2018-12-09T12:28:15.405Z,7.7
2018-12-09T12:29:18.019Z,7.6
2018-12-09T12:30:20.490Z,7.7
2018-12-09T12:31:22.612Z,7.6
2018-12-09T12:32:24.739Z,7.6
2018-12-09T12:33:26.872Z,7.6
2018-12-09T12:34:28.986Z,7.6
2018-12-09T12:35:31.127Z,7.6
2018-12-09T12:36:33.243Z,7.6
2018-12-09T12:37:35.372Z,7.6
2018-12-09T12:38:37.501Z,7.6
2018-12-09T12:39:39.615Z,7.6
2018-12-09T12:40:41.738Z,7.5
2018-12-09T12:41:44.160Z,7.5
2018-12-09T12:42:46.296Z,7.6
2018-12-09T12:43:48.397Z,7.6
2018-12-09T12:44:50.534Z,7.6
2018-12-09T12:45:52.656Z,7.6
2018-12-09T12:46:54.760Z,7.6
2018-12-09T12:47:57.229Z,7.6
2018-12-09T12:48:59.632Z,7.6
2018-12-09T12:50:01.760Z,7.6
2018-12-09T12:51:03.881Z,7.6
2018-12-09T12:52:06.299Z,7.7
2018-12-09T12:53:08.415Z,7.7
2018-12-09T12:54:10.545Z,7.8
2018-12-09T12:55:12.950Z,7.7
2018-12-09T12:56:15.054Z,7.7
2018-12-09T12:57:17.187Z,7.7
2018-12-09T12:58:19.614Z,7.7
2018-12-09T12:59:21.722Z,7.7
2018-12-09T13:00:24.119Z,7.8
2018-12-09T13:01:26.535Z,7.8
2018-12-09T13:02:28.650Z,7.8
2018-12-09T13:03:30.781Z,7.7
2018-12-09T13:04:32.902Z,7.7
2018-12-09T13:05:35.010Z,7.7
2018-12-09T13:06:37.699Z,7.7
2018-12-09T13:07:39.824Z,7.7
2018-12-09T13:08:41.934Z,7.7
2018-12-09T13:09:44.092Z,7.7
2018-12-09T13:10:46.219Z,7.7
2018-12-09T13:11:48.323Z,7.7
2018-12-09T13:12:50.457Z,7.7
2018-12-09T13:13:52.863Z,7.7
2018-12-09T13:14:55.053Z,7.7
2018-12-09T13:15:57.158Z,7.7
2018-12-09T13:16:59.292Z,7.7
2018-12-09T13:18:01.470Z,7.7
2018-12-09T13:19:03.593Z,7.7
2018-12-09T13:20:05.722Z,7.6
2018-12-09T13:21:07.840Z,7.6
2018-12-09T13:22:10.355Z,7.6
2018-12-09T13:23:12.477Z,7.6
2018-12-09T13:24:14.618Z,7.5
2018-12-09T13:25:16.729Z,7.6
2018-12-09T13:26:18.867Z,7.6
2018-12-09T13:27:20.985Z,7.5
2018-12-09T13:28:23.103Z,7.5
2018-12-09T13:29:25.254Z,7.5
2018-12-09T13:30:27.373Z,7.5
2018-12-09T13:31:29.883Z,7.4
2018-12-09T13:32:32.016Z,7.5
2018-12-09T13:33:34.135Z,7.5
2018-12-09T13:34:36.246Z,7.5
2018-12-09T13:35:38.366Z,7.5
2018-12-09T13:36:40.493Z,7.4
2018-12-09T13:37:42.635Z,7.4
2018-12-09T13:38:44.743Z,7.4
2018-12-09T13:39:46.865Z,7.5
2018-12-09T13:40:49.380Z,7.4
2018-12-09T13:41:51.765Z,7.4
2018-12-09T13:42:54.377Z,7.4
2018-12-09T13:43:56.494Z,7.4
2018-12-09T13:44:58.607Z,7.4
2018-12-09T13:46:00.740Z,7.4
2018-12-09T13:47:03.159Z,7.4
2018-12-09T13:48:05.288Z,7.4
2018-12-09T13:49:07.694Z,7.3
2018-12-09T13:50:09.825Z,7.3
2018-12-09T13:51:11.938Z,7.3
2018-12-09T13:52:14.062Z,7.3
2018-12-09T13:53:16.194Z,7.3
2018-12-09T13:54:18.308Z,7.4
2018-12-09T13:55:20.431Z,7.3
2018-12-09T13:56:22.550Z,7.3
2018-12-09T13:57:24.683Z,7.3
2018-12-09T13:58:27.073Z,7.3
2018-12-09T13:59:29.221Z,7.3
2018-12-09T14:00:31.729Z,7.3
2018-12-09T14:01:33.844Z,7.3
2018-12-09T14:02:35.980Z,7.3
2018-12-09T14:03:38.092Z,7.3
2018-12-09T14:04:40.215Z,7.3
2018-12-09T14:05:42.341Z,7.3
2018-12-09T14:06:44.467Z,7.3
2018-12-09T14:07:46.578Z,7.3
2018-12-09T14:08:48.715Z,7.3
2018-12-09T14:09:50.892Z,7.2
2018-12-09T14:10:53.079Z,7.3
2018-12-09T14:11:55.230Z,7.2
2018-12-09T14:12:57.712Z,7.2
2018-12-09T14:13:59.855Z,7.2
2018-12-09T14:15:02.345Z,7.2
2018-12-09T14:16:04.876Z,7.2
2018-12-09T14:17:07.272Z,7.2
2018-12-09T14:18:09.404Z,7.2
2018-12-09T14:19:11.628Z,7.2
2018-12-09T14:20:14.292Z,7.2